Time;durP1;ratioP1;P1;durP2;ratioP2;P2;SDS_P1;SDS_P2;PMS_P1;PMS_P2;Temp;Humidity;BMP_temperature;BMP_pressure;BME280_temperature;BME280_humidity;BME280_pressure;Samples;Min_cycle;Max_cycle;Signal;HPM_P1;HPM_P2
2022/07/05 00:01:31;;;;;;;4.97;2.93;;;20.40;80.40;;;;;;5035705;28;20610;-55
2022/07/05 00:04:03;;;;;;;3.03;2.80;;;20.40;80.50;;;;;;5035955;28;20624;-54
2022/07/05 00:06:30;;;;;;;5.70;3.10;;;20.40;80.50;;;;;;5038266;28;20457;-41
2022/07/05 00:08:58;;;;;;;5.80;4.20;;;20.30;80.70;;;;;;5038347;28;20501;-44
2022/07/05 00:11:28;;;;;;;6.03;3.60;;;20.20;80.90;;;;;;5038006;28;20479;-49
2022/07/05 00:13:55;;;;;;;5.03;3.97;;;20.10;81.40;;;;;;5037854;28;20469;-47
2022/07/05 00:16:22;;;;;;;4.90;2.87;;;20.10;81.70;;;;;;5035705;28;20913;-50
2022/07/05 00:18:49;;;;;;;8.93;3.30;;;20.10;81.90;;;;;;5030298;28;20429;-44
2022/07/05 00:21:15;;;;;;;5.83;2.37;;;20.10;82.20;;;;;;5037510;28;20573;-45
2022/07/05 00:26:28;;;;;;;4.00;2.87;;;19.90;82.90;;;;;;5037019;28;20437;-47
2022/07/05 00:28:55;;;;;;;3.60;2.97;;;19.90;83.10;;;;;;5037395;28;20493;-41
2022/07/05 00:31:23;;;;;;;10.70;3.97;;;19.80;83.40;;;;;;5036570;28;20523;-42
2022/07/05 00:33:49;;;;;;;2.93;2.63;;;19.80;83.60;;;;;;5037446;28;20460;-38
2022/07/05 00:36:16;;;;;;;3.93;3.07;;;19.80;84.20;;;;;;5037278;28;20461;-55
2022/07/05 00:38:43;;;;;;;5.03;2.40;;;19.70;84.70;;;;;;5037464;28;20445;-47
2022/07/05 00:41:10;;;;;;;5.90;3.10;;;19.70;85.10;;;;;;5036944;28;20769;-50
2022/07/05 00:43:38;;;;;;;4.47;2.80;;;19.60;85.60;;;;;;5038106;28;20459;-38
2022/07/05 00:46:05;;;;;;;3.50;2.37;;;19.60;86.00;;;;;;5034957;28;20441;-51
2022/07/05 00:48:32;;;;;;;3.60;1.97;;;19.60;86.50;;;;;;5030946;28;20502;-51
2022/07/05 00:50:59;;;;;;;3.83;2.33;;;19.50;86.80;;;;;;5035715;28;20493;-40
2022/07/05 00:53:26;;;;;;;4.60;2.77;;;19.50;87.30;;;;;;5037170;28;20469;-41
2022/07/05 00:55:54;;;;;;;4.67;2.27;;;19.50;87.80;;;;;;5036163;28;20440;-49
2022/07/05 00:58:21;;;;;;;4.07;2.50;;;19.50;88.40;;;;;;5037029;28;20459;-50
2022/07/05 01:00:52;;;;;;;3.60;2.27;;;19.50;88.90;;;;;;5036465;28;20503;-49
2022/07/05 01:03:21;;;;;;;3.13;2.53;;;19.40;89.30;;;;;;5036722;28;20433;-47
2022/07/05 01:05:48;;;;;;;3.47;2.63;;;19.40;89.70;;;;;;5034446;28;20492;-49
2022/07/05 01:08:15;;;;;;;3.03;2.73;;;19.40;90.00;;;;;;5033282;28;20489;-45
2022/07/05 01:10:43;;;;;;;4.70;2.60;;;19.40;90.30;;;;;;5035572;28;20541;-48
2022/07/05 01:13:14;;;;;;;6.40;4.20;;;19.40;90.50;;;;;;5036795;28;20516;-51
2022/07/05 01:15:42;;;;;;;7.13;2.50;;;19.40;90.90;;;;;;5036601;28;20469;-44
2022/07/05 01:18:12;;;;;;;7.47;2.77;;;19.40;91.00;;;;;;5035491;28;20445;-44
2022/07/05 01:20:40;;;;;;;4.33;2.80;;;19.40;91.30;;;;;;5035316;28;20488;-43
2022/07/05 01:23:11;;;;;;;2.33;2.13;;;19.30;91.60;;;;;;5035533;28;20442;-46
2022/07/05 01:25:38;;;;;;;3.00;2.50;;;19.20;91.90;;;;;;5036400;28;20461;-50
2022/07/05 01:28:05;;;;;;;4.03;2.27;;;19.20;92.60;;;;;;5035419;28;20556;-49
2022/07/05 01:30:35;;;;;;;2.97;2.60;;;19.20;92.40;;;;;;5034914;28;20480;-52
2022/07/05 01:33:02;;;;;;;2.20;2.00;;;19.20;92.50;;;;;;5036857;28;20509;-51
2022/07/05 01:35:31;;;;;;;3.33;3.03;;;19.20;93.00;;;;;;5037265;28;20461;-51
2022/07/05 01:37:58;;;;;;;3.67;2.37;;;19.20;93.10;;;;;;5035467;28;20433;-48
2022/07/05 01:40:27;;;;;;;5.20;2.50;;;19.20;93.30;;;;;;5036558;28;20501;-40
2022/07/05 01:43:00;;;;;;;5.47;1.87;;;19.20;93.50;;;;;;5034275;28;20453;-48
2022/07/05 01:45:42;;;;;;;2.43;1.70;;;19.20;93.80;;;;;;5035206;28;20418;-42
2022/07/05 01:48:10;;;;;;;2.67;2.23;;;19.10;94.00;;;;;;5035472;28;20437;-38
2022/07/05 01:50:42;;;;;;;2.87;1.80;;;19.10;94.80;;;;;;5035925;28;20484;-50
2022/07/05 01:53:18;;;;;;;4.00;1.77;;;19.10;94.60;;;;;;5035621;28;20477;-44
2022/07/05 01:55:46;;;;;;;1.80;1.40;;;19.10;94.80;;;;;;5035514;28;20456;-44
2022/07/05 01:58:24;;;;;;;4.47;2.03;;;19.10;95.20;;;;;;5035091;28;20456;-44
2022/07/05 02:00:54;;;;;;;4.80;2.33;;;19.10;95.60;;;;;;5036564;28;20449;-48
2022/07/05 02:03:24;;;;;;;2.10;1.90;;;19.10;95.90;;;;;;5035708;28;20461;-45
2022/07/05 02:05:52;;;;;;;5.70;2.00;;;19.00;96.30;;;;;;5035861;28;20448;-47
2022/07/05 02:08:19;;;;;;;2.43;1.73;;;19.00;96.50;;;;;;5035573;28;20473;-47
2022/07/05 02:10:48;;;;;;;2.50;2.00;;;19.10;96.60;;;;;;5035384;28;20542;-45
2022/07/05 02:13:15;;;;;;;2.60;2.00;;;19.10;96.80;;;;;;5034377;28;20442;-50
2022/07/05 02:15:43;;;;;;;2.40;1.83;;;19.10;97.00;;;;;;5036448;28;20429;-43
2022/07/05 02:18:10;;;;;;;2.77;1.90;;;19.10;97.20;;;;;;5036272;28;20472;-40
2022/07/05 02:20:40;;;;;;;3.17;2.10;;;19.10;97.40;;;;;;5030729;28;20476;-59
2022/07/05 02:23:09;;;;;;;2.07;1.80;;;19.10;97.70;;;;;;5034554;28;20505;-38
2022/07/05 02:25:36;;;;;;;2.80;2.37;;;19.00;98.00;;;;;;5035917;28;20511;-44
2022/07/05 02:28:06;;;;;;;2.80;1.97;;;19.00;98.60;;;;;;5035319;28;20480;-44
2022/07/05 02:30:32;;;;;;;1.90;1.67;;;19.00;99.10;;;;;;5035603;28;20488;-51
2022/07/05 02:33:01;;;;;;;2.07;1.87;;;19.00;99.60;;;;;;5035855;28;20447;-38
2022/07/05 02:35:32;;;;;;;3.60;1.90;;;19.00;99.90;;;;;;5034495;28;20464;-57
2022/07/05 02:38:02;;;;;;;2.30;1.57;;;19.00;99.90;;;;;;5034913;28;20517;-51
2022/07/05 02:40:35;;;;;;;3.53;1.57;;;19.00;99.90;;;;;;5032126;28;20433;-39
2022/07/05 02:43:05;;;;;;;4.47;1.70;;;19.00;99.90;;;;;;5032111;28;20469;-49
2022/07/05 02:45:45;;;;;;;2.23;1.80;;;19.00;99.90;;;;;;5033954;28;20503;-47
2022/07/05 02:48:15;;;;;;;2.73;1.70;;;19.00;99.90;;;;;;5032410;28;20484;-46
2022/07/05 02:50:47;;;;;;;5.00;1.73;;;19.00;99.90;;;;;;5034125;28;20493;-38
2022/07/05 02:53:17;;;;;;;3.70;1.80;;;19.00;99.90;;;;;;5034553;28;20532;-53
2022/07/05 02:55:44;;;;;;;1.73;1.23;;;19.10;99.90;;;;;;5033852;28;20476;-49
2022/07/05 02:58:11;;;;;;;3.37;2.00;;;19.10;99.90;;;;;;5034831;28;20516;-49
2022/07/05 03:00:39;;;;;;;2.57;1.67;;;19.00;99.90;;;;;;5034854;28;20447;-56
2022/07/05 03:03:06;;;;;;;3.83;2.67;;;19.00;99.90;;;;;;5036074;28;20509;-51
2022/07/05 03:05:39;;;;;;;2.50;1.70;;;19.00;99.90;;;;;;5035110;28;20464;-50
2022/07/05 03:08:06;;;;;;;2.90;1.60;;;18.90;99.90;;;;;;5031607;28;20447;-46
2022/07/05 03:10:33;;;;;;;12.33;2.30;;;18.90;99.90;;;;;;5035056;28;20429;-40
2022/07/05 03:13:00;;;;;;;5.90;2.00;;;18.90;99.90;;;;;;5035083;28;20468;-52
2022/07/05 03:15:27;;;;;;;3.13;1.97;;;19.00;99.90;;;;;;5035590;28;20476;-44
2022/07/05 03:17:56;;;;;;;2.43;2.23;;;18.90;99.90;;;;;;5034926;28;20497;-46
2022/07/05 03:20:23;;;;;;;2.40;1.67;;;18.90;99.90;;;;;;5034869;28;20488;-51
2022/07/05 03:22:56;;;;;;;2.00;1.80;;;18.90;99.90;;;;;;5030915;28;20460;-53
2022/07/05 03:25:26;;;;;;;5.33;2.27;;;18.90;99.90;;;;;;5034979;28;20469;-46
2022/07/05 03:27:56;;;;;;;5.43;2.10;;;18.80;99.90;;;;;;5034460;28;20472;-44
2022/07/05 03:30:22;;;;;;;3.07;2.40;;;18.80;99.90;;;;;;5034771;28;20448;-54
2022/07/05 03:32:49;;;;;;;2.97;2.07;;;18.70;99.90;;;;;;5037141;28;20560;-49
2022/07/05 03:35:18;;;;;;;2.43;1.53;;;18.60;99.90;;;;;;5039223;28;20461;-46
2022/07/05 03:37:45;;;;;;;2.17;1.97;;;18.60;99.90;;;;;;5038779;28;20461;-48
2022/07/05 03:40:12;;;;;;;2.17;1.53;;;18.60;99.90;;;;;;5038968;28;20453;-52
2022/07/05 03:42:39;;;;;;;2.70;1.70;;;18.50;99.90;;;;;;5039111;28;20460;-51
2022/07/05 03:45:21;;;;;;;2.50;1.73;;;18.50;99.90;;;;;;5038498;28;20480;-45
2022/07/05 03:47:54;;;;;;;1.87;1.70;;;18.50;99.90;;;;;;5038752;28;20515;-46
2022/07/05 03:50:24;;;;;;;2.13;1.80;;;18.50;99.90;;;;;;5038677;28;20516;-55
2022/07/05 03:52:50;;;;;;;4.23;1.53;;;18.50;99.90;;;;;;5039130;28;20500;-55
2022/07/05 03:55:17;;;;;;;3.33;1.43;;;18.50;99.90;;;;;;5038703;28;20496;-59
2022/07/05 03:57:45;;;;;;;2.00;1.80;;;18.50;99.90;;;;;;5039030;28;20963;-53
2022/07/05 04:00:13;;;;;;;1.87;1.60;;;18.50;99.90;;;;;;5038248;28;20432;-55
2022/07/05 04:02:42;;;;;;;3.37;1.80;;;18.50;99.90;;;;;;5038564;28;20471;-52
2022/07/05 04:05:09;;;;;;;2.80;2.10;;;18.40;99.90;;;;;;5038621;28;20464;-43
2022/07/05 04:07:48;;;;;;;3.50;1.53;;;18.50;99.90;;;;;;5038076;28;20444;-51
2022/07/05 04:10:15;;;;;;;4.27;1.90;;;18.50;99.90;;;;;;5038168;28;20463;-48
2022/07/05 04:12:44;;;;;;;2.00;1.50;;;18.50;99.90;;;;;;5037574;28;20481;-41
2022/07/05 04:15:12;;;;;;;5.60;1.97;;;18.50;99.90;;;;;;5038127;28;20451;-49
2022/07/05 04:17:47;;;;;;;2.13;1.90;;;18.50;99.90;;;;;;5037756;28;20452;-40
2022/07/05 04:20:15;;;;;;;2.50;1.90;;;18.50;99.90;;;;;;5038026;28;20432;-50
2022/07/05 04:22:43;;;;;;;3.10;1.80;;;18.50;99.90;;;;;;5038697;28;20513;-49
2022/07/05 04:25:18;;;;;;;1.47;1.37;;;18.50;99.90;;;;;;5038531;28;20528;-44
2022/07/05 04:27:44;;;;;;;2.10;1.37;;;18.60;99.90;;;;;;5037331;28;20500;-53
2022/07/05 04:30:15;;;;;;;2.97;1.53;;;18.60;99.90;;;;;;5038358;28;20443;-46
2022/07/05 04:32:43;;;;;;;1.93;1.43;;;18.60;99.90;;;;;;5038112;28;20587;-52
2022/07/05 04:35:11;;;;;;;2.80;1.40;;;18.70;99.90;;;;;;5038191;28;20441;-44
2022/07/05 04:37:38;;;;;;;3.20;1.50;;;18.80;99.90;;;;;;5036901;28;20476;-40
2022/07/05 04:40:09;;;;;;;3.10;1.90;;;18.80;99.90;;;;;;5037364;28;20448;-46
2022/07/05 04:42:36;;;;;;;3.80;1.47;;;18.70;99.90;;;;;;5036644;28;20501;-47
2022/07/05 04:45:03;;;;;;;4.60;1.50;;;18.80;99.90;;;;;;5037320;28;20471;-40
2022/07/05 04:47:30;;;;;;;2.77;1.70;;;18.90;99.90;;;;;;5035283;28;20496;-42
2022/07/05 04:49:58;;;;;;;3.00;1.67;;;18.90;99.90;;;;;;5037547;28;20428;-53
2022/07/05 04:52:25;;;;;;;3.73;1.87;;;18.90;99.90;;;;;;5035767;28;20495;-48
2022/07/05 04:54:52;;;;;;;2.90;1.30;;;19.00;99.90;;;;;;5037667;28;20432;-54
2022/07/05 04:57:20;;;;;;;6.90;1.80;;;19.00;99.90;;;;;;5057093;28;20460;-51
2022/07/05 04:59:47;;;;;;;2.90;1.80;;;19.10;99.90;;;;;;5056851;28;20463;-49
2022/07/05 05:02:14;;;;;;;2.30;1.90;;;19.10;99.90;;;;;;5056073;28;20443;-52
2022/07/05 05:04:40;;;;;;;5.00;1.50;;;19.20;99.90;;;;;;5056250;28;20483;-49
2022/07/05 05:07:10;;;;;;;3.17;2.00;;;19.20;99.90;;;;;;5055134;28;20487;-45
2022/07/05 05:09:39;;;;;;;5.40;2.07;;;19.30;99.90;;;;;;5055777;28;20455;-50
2022/07/05 05:12:07;;;;;;;2.27;1.80;;;19.30;99.90;;;;;;5054036;28;20515;-54
2022/07/05 05:14:36;;;;;;;3.23;1.93;;;19.40;99.90;;;;;;5055576;28;20496;-49
2022/07/05 05:17:02;;;;;;;5.33;2.70;;;19.40;99.90;;;;;;5056482;28;20447;-47
2022/07/05 05:19:29;;;;;;;3.00;1.63;;;19.50;99.90;;;;;;5056239;28;20459;-51
2022/07/05 05:21:56;;;;;;;2.60;1.80;;;19.50;99.90;;;;;;5054402;28;20462;-41
2022/07/05 05:24:26;;;;;;;3.43;1.90;;;19.60;99.90;;;;;;5055352;28;20452;-48
2022/07/05 05:26:54;;;;;;;1.87;1.40;;;19.60;99.90;;;;;;5056982;28;20443;-50
2022/07/05 05:29:21;;;;;;;4.90;1.77;;;19.70;99.90;;;;;;5056206;28;20707;-47
2022/07/05 05:31:50;;;;;;;3.77;1.93;;;19.70;99.90;;;;;;5054609;28;20492;-42
2022/07/05 05:34:17;;;;;;;2.10;1.60;;;19.80;99.90;;;;;;5054876;28;20471;-42
2022/07/05 05:36:43;;;;;;;3.90;1.90;;;19.90;99.90;;;;;;5056931;28;20784;-47
2022/07/05 05:39:11;;;;;;;3.30;1.83;;;19.90;99.90;;;;;;5047581;28;20472;-47
2022/07/05 05:41:38;;;;;;;3.20;1.60;;;19.90;99.90;;;;;;5044011;28;20502;-43
2022/07/05 05:44:05;;;;;;;3.33;2.70;;;20.00;99.90;;;;;;5045767;28;20484;-43
2022/07/05 05:46:33;;;;;;;3.57;1.57;;;20.10;99.90;;;;;;5045134;28;20455;-45
2022/07/05 05:49:01;;;;;;;2.90;1.60;;;20.10;99.90;;;;;;5047668;28;20476;-50
2022/07/05 05:51:28;;;;;;;3.10;2.00;;;20.10;99.90;;;;;;5034404;28;20421;-38
2022/07/05 05:53:55;;;;;;;1.63;1.43;;;20.20;99.90;;;;;;5035276;28;20497;-41
2022/07/05 05:56:22;;;;;;;2.63;1.87;;;20.20;99.90;;;;;;5031197;28;20465;-44
2022/07/05 05:58:49;;;;;;;3.53;1.30;;;20.30;99.90;;;;;;5035697;28;20465;-52
2022/07/05 06:01:15;;;;;;;2.57;2.10;;;20.30;99.90;;;;;;5035821;28;21001;-50
2022/07/05 06:03:42;;;;;;;3.30;1.77;;;20.30;99.90;;;;;;5034818;28;20441;-51
2022/07/05 06:06:10;;;;;;;2.50;1.60;;;20.30;99.90;;;;;;5035858;28;20465;-46
2022/07/05 06:08:37;;;;;;;2.50;1.70;;;20.40;99.90;;;;;;5036211;28;20497;-49
2022/07/05 06:11:04;;;;;;;2.53;1.77;;;20.40;99.90;;;;;;5035291;28;20465;-52
2022/07/05 06:13:32;;;;;;;8.50;2.30;;;20.50;99.90;;;;;;5034903;28;20483;-53
2022/07/05 06:15:59;;;;;;;1.70;1.60;;;20.60;99.90;;;;;;5035104;28;20455;-54
2022/07/05 06:18:25;;;;;;;2.90;2.00;;;20.70;99.90;;;;;;5033707;28;20496;-53
2022/07/05 06:20:52;;;;;;;2.80;1.73;;;20.70;99.90;;;;;;5034480;28;20441;-52
2022/07/05 06:23:20;;;;;;;2.50;1.67;;;20.80;99.90;;;;;;5035502;28;20437;-47
2022/07/05 06:25:47;;;;;;;4.60;1.60;;;20.90;99.90;;;;;;5035099;28;20456;-44
2022/07/05 06:28:15;;;;;;;2.33;1.60;;;20.90;99.90;;;;;;5040375;28;20458;-43
2022/07/05 06:30:42;;;;;;;2.40;1.70;;;21.00;99.90;;;;;;5042772;28;20448;-50
2022/07/05 06:33:09;;;;;;;2.23;1.07;;;21.10;99.90;;;;;;5047533;28;20488;-44
2022/07/05 06:35:38;;;;;;;2.30;1.70;;;21.20;99.90;;;;;;5037439;28;20445;-46
2022/07/05 06:38:07;;;;;;;2.90;1.50;;;21.20;99.90;;;;;;5046363;28;20437;-47
2022/07/05 06:40:36;;;;;;;2.13;1.43;;;21.30;99.90;;;;;;5047702;28;20441;-52
2022/07/05 06:43:05;;;;;;;4.03;1.93;;;21.30;99.90;;;;;;5035559;28;20948;-45
2022/07/05 06:45:32;;;;;;;3.77;1.47;;;21.30;99.90;;;;;;5044086;28;20462;-45
2022/07/05 06:48:02;;;;;;;2.50;2.13;;;21.40;99.90;;;;;;5046354;28;20480;-48
2022/07/05 06:50:31;;;;;;;3.10;1.70;;;21.50;99.90;;;;;;5042208;28;20487;-55
2022/07/05 06:52:57;;;;;;;5.33;1.67;;;21.50;99.90;;;;;;5046117;28;20478;-60
2022/07/05 06:55:25;;;;;;;4.70;2.10;;;21.50;99.90;;;;;;5054943;28;20484;-46
2022/07/05 06:57:59;;;;;;;3.70;2.63;;;21.60;99.90;;;;;;5054607;28;20456;-54
2022/07/05 07:00:27;;;;;;;3.00;1.57;;;21.80;99.90;;;;;;5054829;28;20448;-49
2022/07/05 07:02:54;;;;;;;4.13;1.53;;;21.80;99.90;;;;;;5054751;28;20464;-47
2022/07/05 07:05:21;;;;;;;2.30;1.80;;;21.90;99.90;;;;;;5054441;28;20556;-46
2022/07/05 07:10:32;;;;;;;2.30;1.73;;;22.20;99.90;;;;;;5053699;28;20439;-46
2022/07/05 07:13:01;;;;;;;6.73;1.77;;;22.30;99.90;;;;;;5053489;28;20507;-49
2022/07/05 07:15:29;;;;;;;5.20;1.70;;;22.40;99.90;;;;;;5052709;28;20448;-48
2022/07/05 07:17:58;;;;;;;5.60;1.63;;;22.50;99.90;;;;;;5053140;28;20923;-50
2022/07/05 07:20:26;;;;;;;5.03;1.80;;;22.70;99.90;;;;;;5052090;28;20495;-57
2022/07/05 07:22:55;;;;;;;4.20;1.70;;;23.10;99.90;;;;;;5051559;28;20535;-50
2022/07/05 07:25:23;;;;;;;1.80;1.63;;;23.90;99.30;;;;;;5053448;28;20423;-46
2022/07/05 07:27:51;;;;;;;1.63;1.53;;;25.10;97.70;;;;;;5051260;28;20490;-50
2022/07/05 07:30:22;;;;;;;2.93;2.50;;;26.70;93.60;;;;;;5052101;28;20572;-54
2022/07/05 07:32:49;;;;;;;1.80;1.60;;;28.10;90.10;;;;;;5050708;28;20520;-49
2022/07/05 07:35:16;;;;;;;2.80;1.70;;;29.50;80.90;;;;;;5039959;28;20521;-55
2022/07/05 07:37:43;;;;;;;2.27;1.90;;;30.70;73.00;;;;;;5026463;28;20536;-53
2022/07/05 07:40:11;;;;;;;5.27;2.23;;;31.70;66.30;;;;;;5029634;28;20441;-51
2022/07/05 07:42:38;;;;;;;3.10;1.67;;;32.60;59.70;;;;;;5029146;28;20430;-52
2022/07/05 07:45:06;;;;;;;2.83;2.00;;;32.90;57.70;;;;;;5031011;28;20437;-52
2022/07/05 07:47:35;;;;;;;3.00;2.07;;;33.60;55.20;;;;;;5030459;28;20529;-54
2022/07/05 07:50:03;;;;;;;2.03;1.70;;;34.20;53.40;;;;;;5030104;28;20497;-49
2022/07/05 07:52:33;;;;;;;1.90;1.50;;;34.80;50.70;;;;;;5030113;28;20791;-54
2022/07/05 07:55:00;;;;;;;2.50;1.50;;;34.90;48.90;;;;;;5031774;28;20544;-49
2022/07/05 07:57:27;;;;;;;4.27;1.90;;;34.70;47.60;;;;;;5037647;28;20428;-57
2022/07/05 07:59:53;;;;;;;2.13;1.50;;;34.60;47.90;;;;;;5036288;28;20462;-50
2022/07/05 08:02:22;;;;;;;2.37;1.27;;;34.60;47.30;;;;;;5034692;28;20445;-55
2022/07/05 08:04:51;;;;;;;1.53;1.30;;;34.60;46.20;;;;;;5050218;28;20463;-54
2022/07/05 08:07:19;;;;;;;2.57;1.60;;;34.90;45.70;;;;;;5050587;28;20845;-58
2022/07/05 08:09:46;;;;;;;1.83;1.63;;;35.20;45.10;;;;;;5049742;28;20474;-56
2022/07/05 08:12:13;;;;;;;3.03;2.23;;;35.20;44.70;;;;;;5049295;28;20463;-55
2022/07/05 08:14:40;;;;;;;2.67;1.70;;;34.90;44.80;;;;;;5035896;28;20455;-56
2022/07/05 08:17:08;;;;;;;1.90;1.60;;;34.70;45.30;;;;;;5043790;28;20440;-54
2022/07/05 08:22:22;;;;;;;2.10;1.70;;;34.80;45.40;;;;;;5052973;28;20423;-56
2022/07/05 08:24:49;;;;;;;2.37;1.60;;;34.90;44.80;;;;;;5052049;28;20509;-52
2022/07/05 08:27:16;;;;;;;3.13;1.63;;;34.80;44.40;;;;;;5052125;28;20446;-54
2022/07/05 08:29:43;;;;;;;5.20;1.90;;;34.80;44.20;;;;;;5050773;28;20536;-52
2022/07/05 08:32:10;;;;;;;7.07;2.10;;;34.70;44.70;;;;;;5051937;28;20479;-59
2022/07/05 08:34:39;;;;;;;3.50;1.53;;;34.80;44.20;;;;;;5050682;28;20494;-57
2022/07/05 08:37:06;;;;;;;2.00;1.83;;;34.80;44.00;;;;;;5049544;28;20488;-53
2022/07/05 08:39:35;;;;;;;2.23;2.03;;;34.60;44.90;;;;;;5049582;28;20471;-53
2022/07/05 08:42:03;;;;;;;3.90;1.70;;;34.20;44.80;;;;;;5048079;28;20479;-52
2022/07/05 08:44:34;;;;;;;3.00;1.77;;;33.90;45.30;;;;;;5047767;28;20475;-59
2022/07/05 08:47:04;;;;;;;7.90;1.87;;;34.10;45.40;;;;;;5033124;28;20437;-55
2022/07/05 08:49:34;;;;;;;9.70;2.97;;;34.20;45.30;;;;;;5033762;28;20513;-55
2022/07/05 08:52:04;;;;;;;4.00;2.30;;;34.40;45.50;;;;;;5042601;28;20435;-58
2022/07/05 08:54:32;;;;;;;8.20;2.20;;;34.70;44.80;;;;;;5051538;28;20496;-57
2022/07/05 08:57:00;;;;;;;10.20;3.23;;;34.90;44.40;;;;;;5043761;28;20468;-52
2022/07/05 08:59:27;;;;;;;3.20;2.00;;;35.20;44.70;;;;;;5034682;28;20448;-54
2022/07/05 09:01:55;;;;;;;2.50;1.90;;;35.40;44.20;;;;;;5032800;28;20576;-56
2022/07/05 09:04:24;;;;;;;19.80;2.87;;;35.60;44.20;;;;;;5033419;28;20528;-56
2022/07/05 09:06:55;;;;;;;3.83;2.07;;;35.50;43.90;;;;;;5032422;28;20559;-55
2022/07/05 09:09:23;;;;;;;4.00;2.00;;;35.60;43.40;;;;;;5032146;28;20831;-58
2022/07/05 09:11:51;;;;;;;3.50;2.43;;;35.60;42.60;;;;;;5029760;28;20457;-56
2022/07/05 09:14:27;;;;;;;3.00;1.70;;;35.40;42.80;;;;;;5032151;28;20477;-57
2022/07/05 09:16:54;;;;;;;2.90;1.93;;;35.30;42.60;;;;;;5031415;28;20503;-61
2022/07/05 09:19:20;;;;;;;4.20;2.43;;;35.30;42.60;;;;;;5032717;28;20480;-58
2022/07/05 09:21:47;;;;;;;3.33;1.90;;;35.40;42.50;;;;;;5032754;28;20461;-56
2022/07/05 09:24:14;;;;;;;4.20;2.40;;;35.50;43.00;;;;;;5031687;28;20514;-55
2022/07/05 09:26:44;;;;;;;4.13;1.83;;;35.60;43.10;;;;;;5030895;28;20480;-58
2022/07/05 09:29:13;;;;;;;3.10;2.00;;;35.60;42.50;;;;;;5030729;28;20460;-55
2022/07/05 09:31:43;;;;;;;3.40;2.20;;;35.30;42.50;;;;;;5032266;28;20484;-53
2022/07/05 09:34:12;;;;;;;3.00;2.23;;;35.40;42.40;;;;;;5031700;28;20476;-55
2022/07/05 09:36:52;;;;;;;4.13;2.10;;;35.50;42.50;;;;;;5030635;28;20917;-52
2022/07/05 09:39:34;;;;;;;6.03;2.40;;;35.30;42.30;;;;;;5030843;28;20464;-58
2022/07/05 09:42:18;;;;;;;4.80;2.07;;;35.20;42.70;;;;;;5030039;28;20434;-57
2022/07/05 09:44:45;;;;;;;2.17;1.77;;;34.80;42.80;;;;;;5030350;28;20503;-50
2022/07/05 09:47:15;;;;;;;2.50;2.13;;;34.50;43.20;;;;;;5028947;28;20932;-54
2022/07/05 09:49:44;;;;;;;2.83;2.33;;;34.30;43.60;;;;;;5028463;28;20512;-55
2022/07/05 09:52:11;;;;;;;5.30;2.60;;;34.50;44.10;;;;;;5030341;28;20445;-54
2022/07/05 09:54:38;;;;;;;3.93;3.53;;;34.50;43.30;;;;;;5030485;28;20468;-50
2022/07/05 09:57:05;;;;;;;3.50;2.20;;;34.50;43.00;;;;;;5029739;28;20441;-53
2022/07/05 09:59:32;;;;;;;3.63;2.07;;;34.50;43.00;;;;;;5029289;28;20945;-57
2022/07/05 10:01:59;;;;;;;1.87;1.67;;;34.70;43.00;;;;;;5029211;28;20544;-57
2022/07/05 10:04:27;;;;;;;3.57;1.97;;;34.20;43.30;;;;;;5029047;28;20480;-58
2022/07/05 10:06:54;;;;;;;2.33;2.10;;;33.80;44.10;;;;;;5028865;28;20485;-56
2022/07/05 10:09:22;;;;;;;4.20;2.27;;;33.40;44.30;;;;;;5028922;28;20495;-56
2022/07/05 10:11:51;;;;;;;5.53;2.27;;;33.40;44.60;;;;;;5028332;28;20457;-58
2022/07/05 10:14:20;;;;;;;4.83;2.40;;;33.50;45.00;;;;;;5028536;28;20485;-58
2022/07/05 10:16:52;;;;;;;3.23;2.43;;;33.20;44.90;;;;;;5028203;28;20935;-58
2022/07/05 10:19:21;;;;;;;4.80;2.43;;;32.30;45.90;;;;;;5028332;28;20536;-54
2022/07/05 10:21:50;;;;;;;4.00;2.33;;;31.80;46.30;;;;;;5030166;28;20444;-54
2022/07/05 10:24:18;;;;;;;10.03;2.30;;;31.70;46.70;;;;;;5029892;28;20474;-54
2022/07/05 10:26:47;;;;;;;5.83;2.30;;;31.40;46.90;;;;;;5030267;28;20456;-53
2022/07/05 10:29:15;;;;;;;2.10;1.90;;;30.40;47.90;;;;;;5030851;28;20483;-57
2022/07/05 10:31:44;;;;;;;3.63;2.30;;;29.50;49.70;;;;;;5030942;28;20428;-49
2022/07/05 10:34:14;;;;;;;3.10;1.90;;;28.90;51.30;;;;;;5030715;28;20488;-57
2022/07/05 10:36:42;;;;;;;5.10;2.40;;;29.10;51.20;;;;;;5030663;28;20452;-57
2022/07/05 10:39:14;;;;;;;6.60;2.33;;;29.30;50.00;;;;;;5030127;28;20485;-50
2022/07/05 10:41:43;;;;;;;3.90;2.43;;;29.50;49.60;;;;;;5030908;28;20437;-57
2022/07/05 10:44:10;;;;;;;2.67;2.03;;;29.40;50.30;;;;;;5030319;28;20568;-54
2022/07/05 10:46:38;;;;;;;5.00;1.80;;;29.20;50.20;;;;;;5030101;28;20544;-56
2022/07/05 10:49:29;;;;;;;3.23;2.90;;;29.00;50.40;;;;;;5030057;28;20500;-50
2022/07/05 10:51:56;;;;;;;2.40;1.80;;;28.50;52.00;;;;;;5027949;28;20473;-53
2022/07/05 10:54:24;;;;;;;2.10;1.90;;;28.20;52.40;;;;;;5030804;28;20523;-55
2022/07/05 10:57:21;;;;;;;4.70;1.97;;;28.30;52.70;;;;;;5030452;28;20480;-54
2022/07/05 11:00:07;;;;;;;3.87;2.40;;;28.50;52.20;;;;;;5030817;28;20457;-56
2022/07/05 11:02:34;;;;;;;2.10;1.90;;;28.30;51.80;;;;;;5030759;28;20444;-57
2022/07/05 11:05:01;;;;;;;3.47;1.77;;;28.50;52.50;;;;;;5031186;28;20441;-58
2022/07/05 11:07:59;;;;;;;2.77;2.33;;;28.50;52.20;;;;;;5030841;28;20451;-54
2022/07/05 11:10:27;;;;;;;3.10;2.30;;;28.20;52.30;;;;;;5030897;28;20479;-55
2022/07/05 11:12:54;;;;;;;1.93;1.73;;;27.90;53.30;;;;;;5030087;28;20468;-57
2022/07/05 11:15:21;;;;;;;2.13;1.93;;;28.00;53.20;;;;;;5030172;28;20492;-50
2022/07/05 11:17:48;;;;;;;3.13;1.90;;;28.10;52.10;;;;;;5030615;28;20449;-57
2022/07/05 11:20:22;;;;;;;2.33;2.10;;;28.30;53.00;;;;;;5030521;28;20517;-55
2022/07/05 11:23:03;;;;;;;4.33;2.23;;;28.50;52.00;;;;;;5030734;28;20720;-55
2022/07/05 11:25:34;;;;;;;3.57;2.20;;;28.50;50.90;;;;;;5036265;28;20437;-53
2022/07/05 11:28:06;;;;;;;3.23;2.17;;;28.20;52.00;;;;;;5039170;28;20442;-55
2022/07/05 11:30:46;;;;;;;2.87;2.07;;;27.80;52.10;;;;;;5039536;28;20468;-54
2022/07/05 11:33:33;;;;;;;4.50;2.30;;;27.40;53.10;;;;;;5039815;28;20533;-53
2022/07/05 11:36:00;;;;;;;2.73;2.03;;;27.30;54.20;;;;;;5039913;28;20421;-38
2022/07/05 11:38:28;;;;;;;2.40;1.83;;;27.20;54.20;;;;;;5039176;28;20461;-51
2022/07/05 11:40:57;;;;;;;3.03;2.03;;;27.50;54.40;;;;;;5041083;28;20461;-37
2022/07/05 11:43:28;;;;;;;2.90;1.97;;;27.70;54.30;;;;;;5043756;28;20523;-50
2022/07/05 11:45:59;;;;;;;11.00;1.90;;;27.80;54.50;;;;;;5044685;28;20428;-48
2022/07/05 11:48:27;;;;;;;7.17;2.60;;;27.90;54.60;;;;;;5047295;28;21026;-43
2022/07/05 11:50:54;;;;;;;5.63;2.17;;;27.90;53.80;;;;;;5053083;28;20436;-43
2022/07/05 11:53:28;;;;;;;2.70;2.17;;;27.70;54.50;;;;;;5055709;28;20464;-51
2022/07/05 11:55:59;;;;;;;5.80;2.27;;;27.30;54.60;;;;;;5057188;28;20500;-51
2022/07/05 11:58:32;;;;;;;3.70;1.80;;;27.10;54.90;;;;;;5057787;28;20462;-49
2022/07/05 12:00:59;;;;;;;2.33;1.80;;;26.90;55.10;;;;;;5057487;28;20432;-43
2022/07/05 12:03:26;;;;;;;4.60;1.90;;;26.80;55.50;;;;;;5056960;28;20535;-46
2022/07/05 12:05:53;;;;;;;4.43;2.47;;;27.00;55.80;;;;;;5057192;28;20466;-47
2022/07/05 12:08:23;;;;;;;3.80;2.13;;;27.10;55.40;;;;;;5056999;28;20466;-56
2022/07/05 12:13:46;;;;;;;4.00;2.23;;;27.30;54.80;;;;;;5056776;28;20479;-52
2022/07/05 12:16:14;;;;;;;4.07;2.43;;;27.30;54.20;;;;;;5056682;28;20429;-50
2022/07/05 12:18:48;;;;;;;2.83;2.10;;;27.20;53.30;;;;;;5056778;28;20468;-50
2022/07/05 12:21:16;;;;;;;1.93;1.40;;;27.10;53.60;;;;;;5056931;28;20449;-54
2022/07/05 12:23:43;;;;;;;4.53;1.83;;;27.10;53.80;;;;;;5056913;28;20468;-45
2022/07/05 12:26:10;;;;;;;4.03;1.73;;;27.00;54.10;;;;;;5057276;28;20448;-44
2022/07/05 12:28:38;;;;;;;2.60;2.13;;;26.80;54.80;;;;;;5056574;28;20507;-48
2022/07/05 12:31:17;;;;;;;2.43;1.90;;;26.70;54.80;;;;;;5057261;28;20437;-49
2022/07/05 12:33:44;;;;;;;2.87;2.10;;;26.50;54.30;;;;;;5057007;28;20531;-41
2022/07/05 12:36:15;;;;;;;1.87;1.67;;;26.40;54.70;;;;;;5056585;28;20439;-47
2022/07/05 12:38:42;;;;;;;3.40;1.97;;;26.50;54.90;;;;;;5051597;28;20448;-43
2022/07/05 12:41:10;;;;;;;1.97;1.50;;;26.70;54.30;;;;;;5037654;28;20487;-41
2022/07/05 12:43:53;;;;;;;2.63;1.87;;;26.80;54.50;;;;;;5037216;28;20452;-48
2022/07/05 12:46:35;;;;;;;4.33;1.60;;;27.00;53.80;;;;;;5035686;28;20456;-41
2022/07/05 12:49:02;;;;;;;3.37;2.20;;;27.10;53.10;;;;;;5035277;28;20433;-46
2022/07/05 12:51:34;;;;;;;2.30;1.97;;;27.00;52.70;;;;;;5036441;28;20517;-32
2022/07/05 12:59:33;;;;;;;2.57;2.00;;;27.10;53.00;;;;;;5056736;28;20447;-40
2022/07/05 13:02:01;;;;;;;1.87;1.77;;;27.20;53.20;;;;;;5056683;28;20511;-47
2022/07/05 13:04:31;;;;;;;4.40;1.80;;;27.40;53.10;;;;;;5056457;28;20429;-49
2022/07/05 13:06:59;;;;;;;1.90;1.70;;;27.40;53.00;;;;;;5056976;28;20452;-47
2022/07/05 13:09:35;;;;;;;6.60;1.90;;;27.50;52.60;;;;;;5053896;28;20444;-49
2022/07/05 13:12:14;;;;;;;2.47;1.80;;;27.40;53.20;;;;;;5051722;28;20483;-45